Aultman, Pennsylvania
Current Conditions -  °F | °C
As of 1:35 AM on Thursday 27 Nov 2014 (Local Time) from KIDI Reporting Station
Haze Haze  
Wind Chill: 32°   Ceiling: 500
Heat Index: 32°   Visibility: 5mi
Dew Point: 32°   Wind: 0mph
Humidity: 100%   Direction: NA
Pressure: 30.01"   Gusts: NA
Location:  40.56°N, 79.26°W
Report Text: KIDI 270635Z AUTO 00000KT 5SM BR BKN005 BKN013 OVC028 00/M00 A3001 RMK A01
Loading
Personal Weather Stations






























Interactive Weather Map New forecast layout! Learn more

10-Day Weather Forecast

Advertisements
Track Severe Weather on mobile